Senthilchettyin's profile - karma

Senthilchettyin's karma change log

10 0 after Session Time out redirect to another page ( 2018-10-23 20:13:14 +0800 )

2 0 after Session Time out redirect to another page ( 2018-10-23 19:57:24 +0800 )

2 0 ZK 8 Middle Object How to Programmatically make it dirty ( 2018-01-19 19:20:14 +0800 )

2 0 ZK 8 Middle Object issue ( 2018-01-16 20:56:23 +0800 )

10 0 Problem Tabbox Height 100 % ( 2016-12-27 07:54:49 +0800 )

10 0 ZK 8 Form Binding For List of Records ( 2016-12-27 07:54:33 +0800 )

10 0 ZK 8 Form Binding How to get middle object outside the command method ( 2016-12-14 06:40:12 +0800 )

2 0 ZK 8 Form Binding How to get middle object outside the command method ( 2016-12-14 04:08:27 +0800 )

0 -2 ZK 8 Form Binding How to get middle object outside the command method ( 2016-12-14 03:15:47 +0800 )

10 0 MVVM Form binding Validator ( 2016-10-25 04:25:42 +0800 )

10 0 Upgrading to ZK8 java.lang.NoClassDefFoundError: javassist/util/proxy/Proxy Caused by: java.lang.ClassNotFoundException: javassist.util.proxy.Proxy ( 2016-07-25 07:42:41 +0800 )

10 0 How to clear display value when clear combox's items ( 2016-05-20 13:49:02 +0800 )

10 0 ZK 8 Form Object How to get Value ( 2016-04-01 13:37:11 +0800 )

0 -10 ZK 8 Form Object How to get Value ( 2016-04-01 13:37:10 +0800 )

10 0 ZK 8 Form Object How to get Value ( 2016-04-01 13:37:01 +0800 )

2 0 Upgrading to ZK8 java.lang.NoClassDefFoundError: javassist/util/proxy/Proxy Caused by: java.lang.ClassNotFoundException: javassist.util.proxy.Proxy ( 2016-01-04 12:12:36 +0800 )

2 0 Navigation bar ( 2015-08-17 07:02:29 +0800 )

10 0 ZK MVVM Modal Window ( 2015-07-20 19:45:10 +0800 )

10 0 How to get HTML Components values into MVC Composer or MVVM View Model ( 2015-06-26 04:10:45 +0800 )

10 0 MVVM Notifychange for bean property not working ? ( 2015-04-02 04:01:01 +0800 )

2 0 ZK Create New Theme Project ( 2015-03-16 02:58:53 +0800 )

10 0 tutorials for zk framework ( 2015-03-11 19:25:49 +0800 )

2 0 Calender Provide a way do define a default duration for a new Event ( 2015-03-03 09:25:29 +0800 )

2 0 ZK Calender12 Hours Format ( 2015-03-02 07:11:17 +0800 )

2 0 Listcell Empty Space ( 2015-03-02 04:14:30 +0800 )

0 -2 ZK Calender Demo ( 2015-02-24 06:26:57 +0800 )

2 0 ZK Calender Demo ( 2015-02-24 06:26:57 +0800 )

2 0 ZK Calender Demo ( 2015-02-24 04:17:26 +0800 )

10 0 ZK Combo box and MVVM ( 2015-02-13 16:41:21 +0800 )

2 0 ZK Combo box and MVVM ( 2015-02-13 16:39:33 +0800 )

10 0 List box check Box CSS Help ( 2015-02-04 17:14:21 +0800 )

1 0 List box check Box CSS Help ( 2015-02-04 16:59:59 +0800 )

2 0 List box check Box CSS Help ( 2015-02-04 16:59:57 +0800 )

0 -1 List box check Box CSS Help ( 2015-02-04 16:59:56 +0800 )

-2 0 org.zkoss.zk.ui.UiException: can't find Page to resolve a view model class ( 2015-02-03 07:00:36 +0800 )

0 -15 Get parameter from Java class ( 2015-02-02 12:50:51 +0800 )

10 0 Get parameter from Java class ( 2015-02-02 08:25:44 +0800 )

10 0 ZK popup Component Issue ( 2015-01-31 07:21:05 +0800 )

2 0 ZK popup Component Issue ( 2015-01-31 06:56:53 +0800 )

2 0 Since 6.5.2 Paging.setActivePage shows "Unable to set active page to 1 since only 1 pages" ( 2015-01-30 23:06:48 +0800 )

0 -1 Since 6.5.2 Paging.setActivePage shows "Unable to set active page to 1 since only 1 pages" ( 2015-01-30 23:06:43 +0800 )

1 0 Since 6.5.2 Paging.setActivePage shows "Unable to set active page to 1 since only 1 pages" ( 2015-01-30 23:06:42 +0800 )

0 -1 Since 6.5.2 Paging.setActivePage shows "Unable to set active page to 1 since only 1 pages" ( 2015-01-30 23:06:40 +0800 )

0 -2 Since 6.5.2 Paging.setActivePage shows "Unable to set active page to 1 since only 1 pages" ( 2015-01-30 23:06:36 +0800 )

15 0 Get parameter from Java class ( 2015-01-29 08:11:46 +0800 )

0 -2 org.zkoss.zk.ui.UiException: can't find Page to resolve a view model class ( 2015-01-08 06:16:13 +0800 )

10 0 When to use MVC/MVVM ( 2014-09-23 12:00:17 +0800 )

10 0 Opening PDF in another Browser Tab ( 2014-09-21 11:36:52 +0800 )

2 0 Opening PDF in another Browser Tab ( 2014-09-20 13:17:25 +0800 )

15 0 What maven dependency is used for org.zkoss.reference.developer? ( 2014-06-26 13:43:17 +0800 )

10 0 ZK MVVM List Box Export to Excel ( 2014-06-24 08:12:58 +0800 )

10 0 ZK MVVM List Box Export to Excel ( 2014-06-23 19:41:44 +0800 )

10 0 ZK MVVM List Box Export to Excel ( 2014-06-23 07:22:54 +0800 )

15 0 Input invoice using inline listbox ( 2014-06-18 12:38:31 +0800 )

10 0 Input invoice using inline listbox ( 2014-06-17 18:32:12 +0800 )

15 0 How to change the size of o notification ? ( 2014-06-16 12:45:20 +0800 )

10 0 How to change the size of o notification ? ( 2014-06-12 19:57:48 +0800 )

15 0 How to implement dynamic tree model using templete ? ( 2014-06-10 14:27:04 +0800 )

10 0 How to implement dynamic tree model using templete ? ( 2014-06-10 14:25:09 +0800 )

2 0 zk chart Time out problem after download as image ( 2014-06-06 14:55:18 +0800 )

2 0 List Box Footer Problem in Chrome ( 2014-06-05 02:29:33 +0800 )

15 0 How can I show Notification like this ? ( 2014-05-07 18:39:19 +0800 )

10 0 How can I show Notification like this ? ( 2014-05-07 18:39:17 +0800 )

10 0 ZK + Spring 3 + Hibernate 4 Examples ( 2014-04-07 07:32:54 +0800 )

10 0 example : hibernate with Zk ( 2014-03-17 11:20:11 +0800 )

15 0 example : hibernate with Zk ( 2014-03-17 11:20:10 +0800 )

0 -15 example : hibernate with Zk ( 2014-03-17 11:20:08 +0800 )

15 0 example : hibernate with Zk ( 2014-03-17 11:20:05 +0800 )

10 0 ZK 7 Scroll bar problems ( 2014-03-17 07:49:51 +0800 )

2 0 ZK 7 Scroll bar problems ( 2014-03-17 03:48:58 +0800 )

10 0 ZK 7 TextBox Mold Rounded ( 2014-03-14 04:49:41 +0800 )

10 0 Since 6.5.2 Paging.setActivePage shows "Unable to set active page to 1 since only 1 pages" ( 2014-02-18 09:24:07 +0800 )

10 0 column layout question ( 2014-02-17 06:41:24 +0800 )

0 -2 Instant true problem ( 2014-02-14 06:29:31 +0800 )

10 0 why zk framework rather than others? ( 2014-02-12 12:11:41 +0800 )

10 0 Instant true problem ( 2014-02-06 17:28:37 +0800 )

10 0 sendRedirect hide URL ( 2014-01-29 17:21:05 +0800 )

10 0 ZK MVC CRUD With Spring 3 + JPA + Hibernate 4 Entity Manager ( 2014-01-28 10:32:24 +0800 )

10 0 why zk framework rather than others? ( 2014-01-23 01:30:36 +0800 )

10 0 why zk framework rather than others? ( 2014-01-22 10:22:10 +0800 )

10 0 why zk framework rather than others? ( 2014-01-22 08:40:00 +0800 )

10 0 MVVM Notifychange works only along with @Command ? ( 2014-01-18 08:42:02 +0800 )

10 0 how use org.zkoss.bind.converter.sys.ComboboxSelectedItemConverter ( 2014-01-13 14:13:03 +0800 )

10 0 ZK MVVM Listbox Mold Paging - select first record on each page ( 2013-12-17 03:03:54 +0800 )

10 0 Is there a way to access the "Validation Message Holder" from within a view model? ( 2013-12-06 04:53:06 +0800 )

2 0 Layout Help please ( 2013-11-16 13:35:13 +0800 )

10 0 add value in listbox using zk? ( 2013-11-08 11:13:03 +0800 )

15 0 add value in listbox using zk? ( 2013-11-08 11:13:00 +0800 )

2 0 MVVM Binding make invisible component ( 2013-11-08 09:22:34 +0800 )

2 0 MVVM Conditional EL Expression ( 2013-11-08 07:03:47 +0800 )

0 -15 Configure CKEditor from java (not javascript) ( 2013-10-29 08:21:30 +0800 )

15 0 Configure CKEditor from java (not javascript) ( 2013-10-29 08:13:18 +0800 )

10 0 hi all,how to populate the value in another zule page provided by user inside textbox ? ( 2013-10-28 01:34:37 +0800 )

10 0 ZK Dynamic Menu ( 2013-10-28 01:34:17 +0800 )

0 -15 How to modify style menuitem ( 2013-10-01 09:41:22 +0800 )

15 0 How to modify style menuitem ( 2013-10-01 09:41:05 +0800 )

15 0 pass variable between pages ( 2013-10-01 00:33:41 +0800 )

10 0 ZK Dynamic Menu ( 2013-09-17 09:52:25 +0800 )

15 0 Changing Selection Colour - List Box (from default blue) to another custom colour in Zk 6.5.0 ( 2013-09-17 09:36:35 +0800 )

10 0 ZK + Hibernate validation using JSR ( 2013-08-13 08:48:00 +0800 )

0 -10 ZK + Hibernate validation using JSR ( 2013-08-13 08:47:59 +0800 )

10 0 ZK + Hibernate validation using JSR ( 2013-08-13 08:47:53 +0800 )

10 0 MVVM Notifychange works only along with @Command ? ( 2013-07-29 06:58:29 +0800 )

10 0 MVVM Notifychange works only along with @Command ? ( 2013-07-29 06:58:16 +0800 )

10 0 MVVM Notifychange works only along with @Command ? ( 2013-07-29 06:32:42 +0800 )

2 0 MVVM Conditional EL Expression ( 2013-07-24 08:42:38 +0800 )

10 0 ZK MessageBox Style Guide ( 2013-07-23 07:26:09 +0800 )

15 0 hi all,how to populate the value in another zule page provided by user inside textbox ? ( 2013-07-18 06:15:19 +0800 )

10 0 hi all,how to populate the value in another zule page provided by user inside textbox ? ( 2013-07-18 06:14:54 +0800 )

10 0 hi all,how to populate the value in another zule page provided by user inside textbox ? ( 2013-07-18 06:14:51 +0800 )

10 0 Combo box OnDouble Click Event and SelectedItem ( 2013-07-12 10:19:04 +0800 )

10 0 hi all,how to populate the value in another zule page provided by user inside textbox ? ( 2013-07-09 07:01:24 +0800 )

10 0 hi all,how to populate the value in another zule page provided by user inside textbox ? ( 2013-07-09 07:01:24 +0800 )

0 -10 hi all,how to populate the value in another zule page provided by user inside textbox ? ( 2013-07-09 07:01:24 +0800 )

0 -10 hi all,how to populate the value in another zule page provided by user inside textbox ? ( 2013-07-09 07:01:24 +0800 )

10 0 Responsive UI Design using ZK example ( 2013-07-04 13:18:14 +0800 )

10 0 Responsive UI Design using ZK example ( 2013-07-03 06:30:41 +0800 )

10 0 ZK + Spring 3 + Hibernate 4 Examples ( 2013-07-01 11:50:13 +0800 )

10 0 ZK + Spring 3 + Hibernate 4 Examples ( 2013-06-28 07:27:37 +0800 )

2 0 Div or group box appears for several seconds and disappears ( 2013-06-21 04:22:49 +0800 )

15 0 format date label ( 2013-06-20 15:43:38 +0800 )

15 0 problem with zk spring security integration ( 2013-06-05 14:41:56 +0800 )

10 0 Dynamically switch themes using cookie ( 2013-05-01 11:36:23 +0800 )

10 0 ZK Custom theme for each user - Step by Step tutorial. ( 2013-04-29 12:20:52 +0800 )

10 0 Override multiple css as a zk theme through programming ( 2013-04-25 16:07:26 +0800 )

10 0 Override multiple css as a zk theme through programming ( 2013-04-25 13:41:37 +0800 )

10 0 ZK Custom theme for each user - Step by Step tutorial. ( 2013-04-25 02:20:27 +0800 )

10 0 [Solved]How to rollback to older version Zk Studio. ( 2013-04-18 10:03:26 +0800 )

10 0 Step-by-Step Tutorial ( 2013-04-13 15:18:58 +0800 )

10 0 Interface for login pane ( 2013-04-13 15:12:57 +0800 )

15 0 [Solved]How to rollback to older version Zk Studio. ( 2013-04-13 15:12:06 +0800 )

10 0 [Solved]How to rollback to older version Zk Studio. ( 2013-04-13 15:12:04 +0800 )

10 0 [Solved]How to rollback to older version Zk Studio. ( 2013-04-12 09:08:06 +0800 )

10 0 Keypad Component ( 2013-04-12 04:35:29 +0800 )

10 0 ZK MVC CRUD With Spring 3 + JPA + Hibernate 4 Entity Manager ( 2013-04-10 05:48:20 +0800 )

10 0 Visual Editor missing after Update to ZK Studio 2.0 ( 2013-04-09 08:52:10 +0800 )

10 0 Visual Editor missing after Update to ZK Studio 2.0 ( 2013-04-09 08:50:20 +0800 )

10 0 ZK MVC CRUD With Spring 3 + JPA + Hibernate 4 Entity Manager ( 2013-04-09 06:21:57 +0800 )

2 0 composite component help ( 2013-04-01 11:46:17 +0800 )

10 0 composite component help ( 2013-04-01 11:11:20 +0800 )

10 0 my sincere and humble request ( 2013-04-01 03:03:43 +0800 )

0 -10 my sincere and humble request ( 2013-04-01 03:03:40 +0800 )

10 0 my sincere and humble request ( 2013-04-01 03:03:38 +0800 )

2 0 ZK 6.5.2 Packaging Themes ( 2013-03-28 06:33:50 +0800 )

-2 0 Can close a window with zk? ( 2013-03-22 04:04:49 +0800 )

-2 0 Is ZK compatible with hibernate 4.0 ( 2013-03-22 04:04:44 +0800 )

0 -2 Can close a window with zk? ( 2013-03-21 13:41:45 +0800 )

0 -2 Is ZK compatible with hibernate 4.0 ( 2013-03-21 13:24:45 +0800 )

-2 0 Can close a window with zk? ( 2013-03-21 07:52:32 +0800 )

0 -2 Outlook style search box ( 2013-03-21 05:59:10 +0800 )

0 -15 Outlook style search box ( 2013-03-21 05:58:33 +0800 )

0 -2 Outlook style search box ( 2013-03-21 05:57:59 +0800 )

0 -2 Can close a window with zk? ( 2013-03-20 09:43:38 +0800 )

0 -2 zk Listbox Auto sorting by POJO without using any comparator. ( 2013-03-18 10:47:08 +0800 )

10 0 Remove the hover effect from the Grid component ( 2013-03-14 09:53:48 +0800 )

10 0 List Item Double click event on selected Item MVVM ( 2013-03-14 07:26:02 +0800 )

15 0 Listbox with rounded corners ( 2013-03-13 07:11:03 +0800 )

10 0 ZK Custom Theme ( 2013-03-13 05:12:52 +0800 )

2 0 MVVM Listbox Selected Item. Please Help ( 2013-03-11 05:36:38 +0800 )

0 -2 Bug in new forum ? ( 2013-03-07 09:40:58 +0800 )

10 0 ZK Examples is online now!!!!!!!!!! ( 2013-03-05 12:38:46 +0800 )

0 -10 ZK Examples is online now!!!!!!!!!! ( 2013-03-05 12:38:44 +0800 )

10 0 ZK Examples is online now!!!!!!!!!! ( 2013-03-05 12:32:42 +0800 )

15 0 Search button in tutorial does not work ( 2013-03-04 06:22:35 +0800 )

10 0 ZK Examples is online now!!!!!!!!!! ( 2013-02-25 23:22:56 +0800 )

0 -2 Relationship between pages and view models ( 2013-02-20 10:56:08 +0800 )

10 0 ZK Examples is online now!!!!!!!!!! ( 2013-02-19 10:57:22 +0800 )

0 -10 ZK Examples is online now!!!!!!!!!! ( 2013-02-19 10:57:20 +0800 )

10 0 ZK Examples is online now!!!!!!!!!! ( 2013-02-19 10:57:16 +0800 )

2 0 Passing Parameter between two zul files ( 2013-02-19 02:23:42 +0800 )

-2 0 Can close a window with zk? ( 2013-02-18 09:17:38 +0800 )

10 0 "SEVERE: This is an evaluation copy of ZK EE.." how to remove? ( 2013-02-18 01:50:08 +0800 )

0 -15 "SEVERE: This is an evaluation copy of ZK EE.." how to remove? ( 2013-02-18 00:43:44 +0800 )

15 0 "SEVERE: This is an evaluation copy of ZK EE.." how to remove? ( 2013-02-18 00:43:42 +0800 )

0 -2 ZK Examples is online now!!!!!!!!!! ( 2013-02-15 19:26:41 +0800 )

0 -2 Online Demo for examples ( 2013-02-11 10:51:30 +0800 )

0 -2 mvvm issue ( 2013-02-11 09:48:57 +0800 )

0 -2 Online Demo for examples ( 2013-02-07 15:42:27 +0800 )

0 -2 Selectcomposer giving problem ! Please help me ( 2013-02-07 15:42:06 +0800 )

0 -2 Selectcomposer giving problem ! Please help me ( 2013-02-07 15:41:55 +0800 )

0 -2 Can close a window with zk? ( 2013-02-07 15:40:38 +0800 )

2 0 Can close a window with zk? ( 2013-02-07 15:40:35 +0800 )

0 -2 Can close a window with zk? ( 2013-02-07 15:40:21 +0800 )

0 -2 Can close a window with zk? ( 2013-02-07 15:40:07 +0800 )

10 0 zk Listbox Auto sorting by POJO without using any comparator. ( 2013-02-01 14:57:34 +0800 )

0 -10 how to declare @Transactional method in ViewModel ( 2013-02-01 07:12:17 +0800 )

10 0 how to declare @Transactional method in ViewModel ( 2013-02-01 07:12:15 +0800 )

10 0 Online Demo for examples ( 2013-01-25 14:28:39 +0800 )

10 0 Arguments for ZK ( 2013-01-23 10:42:03 +0800 )

10 0 Arguments for ZK ( 2013-01-23 10:41:34 +0800 )

10 0 my sincere and humble request ( 2013-01-23 02:02:54 +0800 )

10 0 Bug in new forum ? ( 2013-01-23 01:12:18 +0800 )

10 0 setWidgetOverride ( 2013-01-22 17:25:36 +0800 )

-2 0 setWidgetOverride ( 2013-01-22 17:23:55 +0800 )

0 -2 setWidgetOverride ( 2013-01-22 16:59:16 +0800 )

10 0 Can close a window with zk? ( 2013-01-22 13:23:11 +0800 )

2 0 Fancy, Mouse over effects , rounded button ( 2013-01-22 12:17:44 +0800 )

10 0 my sincere and humble request ( 2013-01-22 10:26:38 +0800 )

15 0 how do i load a list of objects in a view model and display it in another zul? ( 2013-01-22 08:55:55 +0800 )

10 0 my sincere and humble request ( 2013-01-22 08:00:27 +0800 )

10 0 Arguments for ZK ( 2013-01-22 06:23:34 +0800 )

10 0 Arguments for ZK ( 2013-01-22 06:13:15 +0800 )

Support Options
  • Email Support
  • Training
  • Consulting
  • Outsourcing
Learn More